sensor_id;sensor_type;location;lat;lon;timestamp;P1;durP1;ratioP1;P2;durP2;ratioP2
4794;SDS011;2411;47.060;15.064;2022-07-23T00:00:18;11.47;;;6.63;;
4794;SDS011;2411;47.060;15.064;2022-07-23T00:02:46;6.37;;;5.83;;
4794;SDS011;2411;47.060;15.064;2022-07-23T00:05:13;7.60;;;6.63;;
4794;SDS011;2411;47.060;15.064;2022-07-23T00:07:40;9.63;;;7.00;;
4794;SDS011;2411;47.060;15.064;2022-07-23T00:10:08;7.00;;;6.33;;
4794;SDS011;2411;47.060;15.064;2022-07-23T00:12:35;9.33;;;5.90;;
4794;SDS011;2411;47.060;15.064;2022-07-23T00:15:17;7.23;;;6.53;;
4794;SDS011;2411;47.060;15.064;2022-07-23T00:17:44;7.17;;;6.47;;
4794;SDS011;2411;47.060;15.064;2022-07-23T00:20:12;6.50;;;5.90;;
4794;SDS011;2411;47.060;15.064;2022-07-23T00:22:46;6.40;;;5.73;;
4794;SDS011;2411;47.060;15.064;2022-07-23T00:25:14;10.90;;;5.50;;
4794;SDS011;2411;47.060;15.064;2022-07-23T00:27:58;10.40;;;5.87;;
4794;SDS011;2411;47.060;15.064;2022-07-23T00:30:25;6.50;;;6.00;;
4794;SDS011;2411;47.060;15.064;2022-07-23T00:32:53;6.43;;;5.93;;
4794;SDS011;2411;47.060;15.064;2022-07-23T00:35:27;7.97;;;7.13;;
4794;SDS011;2411;47.060;15.064;2022-07-23T00:38:03;10.77;;;6.10;;
4794;SDS011;2411;47.060;15.064;2022-07-23T00:40:31;9.30;;;6.17;;
4794;SDS011;2411;47.060;15.064;2022-07-23T00:42:58;7.30;;;6.60;;
4794;SDS011;2411;47.060;15.064;2022-07-23T00:45:26;7.57;;;6.87;;
4794;SDS011;2411;47.060;15.064;2022-07-23T00:47:53;7.47;;;6.77;;
4794;SDS011;2411;47.060;15.064;2022-07-23T00:50:20;7.90;;;7.20;;
4794;SDS011;2411;47.060;15.064;2022-07-23T00:52:47;10.10;;;6.20;;
4794;SDS011;2411;47.060;15.064;2022-07-23T00:55:14;7.73;;;6.50;;
4794;SDS011;2411;47.060;15.064;2022-07-23T00:57:42;9.67;;;6.90;;
4794;SDS011;2411;47.060;15.064;2022-07-23T01:00:10;6.63;;;6.03;;
4794;SDS011;2411;47.060;15.064;2022-07-23T01:02:38;7.30;;;6.60;;
4794;SDS011;2411;47.060;15.064;2022-07-23T01:05:06;7.90;;;7.07;;
4794;SDS011;2411;47.060;15.064;2022-07-23T01:07:34;7.20;;;6.70;;
4794;SDS011;2411;47.060;15.064;2022-07-23T01:10:02;8.00;;;7.30;;
4794;SDS011;2411;47.060;15.064;2022-07-23T01:12:32;8.57;;;6.80;;
4794;SDS011;2411;47.060;15.064;2022-07-23T01:14:59;7.43;;;6.73;;
4794;SDS011;2411;47.060;15.064;2022-07-23T01:17:26;7.40;;;6.70;;
4794;SDS011;2411;47.060;15.064;2022-07-23T01:19:54;6.73;;;6.23;;
4794;SDS011;2411;47.060;15.064;2022-07-23T01:22:21;6.10;;;5.60;;
4794;SDS011;2411;47.060;15.064;2022-07-23T01:24:49;7.47;;;6.87;;
4794;SDS011;2411;47.060;15.064;2022-07-23T01:27:16;7.87;;;7.17;;
4794;SDS011;2411;47.060;15.064;2022-07-23T01:29:45;11.13;;;6.50;;
4794;SDS011;2411;47.060;15.064;2022-07-23T01:32:12;7.57;;;6.20;;
4794;SDS011;2411;47.060;15.064;2022-07-23T01:34:40;7.87;;;7.03;;
4794;SDS011;2411;47.060;15.064;2022-07-23T01:37:07;8.03;;;6.50;;
4794;SDS011;2411;47.060;15.064;2022-07-23T01:39:34;9.70;;;7.03;;
4794;SDS011;2411;47.060;15.064;2022-07-23T01:42:01;7.60;;;6.53;;
4794;SDS011;2411;47.060;15.064;2022-07-23T01:44:28;7.47;;;6.80;;
4794;SDS011;2411;47.060;15.064;2022-07-23T01:46:55;7.00;;;6.53;;
4794;SDS011;2411;47.060;15.064;2022-07-23T01:49:23;9.23;;;7.87;;
4794;SDS011;2411;47.060;15.064;2022-07-23T01:51:50;8.87;;;7.70;;
4794;SDS011;2411;47.060;15.064;2022-07-23T01:54:30;7.80;;;7.00;;
4794;SDS011;2411;47.060;15.064;2022-07-23T01:56:58;11.50;;;7.03;;
4794;SDS011;2411;47.060;15.064;2022-07-23T01:59:26;9.40;;;8.00;;
4794;SDS011;2411;47.060;15.064;2022-07-23T02:01:54;8.33;;;7.57;;
4794;SDS011;2411;47.060;15.064;2022-07-23T02:04:22;8.27;;;7.40;;
4794;SDS011;2411;47.060;15.064;2022-07-23T02:06:51;8.60;;;7.80;;
4794;SDS011;2411;47.060;15.064;2022-07-23T02:09:19;9.23;;;8.33;;
4794;SDS011;2411;47.060;15.064;2022-07-23T02:11:46;8.53;;;7.63;;
4794;SDS011;2411;47.060;15.064;2022-07-23T02:14:13;10.43;;;7.50;;
4794;SDS011;2411;47.060;15.064;2022-07-23T02:16:40;8.33;;;7.63;;
4794;SDS011;2411;47.060;15.064;2022-07-23T02:19:07;8.90;;;7.60;;
4794;SDS011;2411;47.060;15.064;2022-07-23T02:21:34;8.40;;;7.70;;
4794;SDS011;2411;47.060;15.064;2022-07-23T02:24:02;10.27;;;8.60;;
4794;SDS011;2411;47.060;15.064;2022-07-23T02:26:29;8.60;;;7.80;;
4794;SDS011;2411;47.060;15.064;2022-07-23T02:28:58;10.90;;;9.17;;
4794;SDS011;2411;47.060;15.064;2022-07-23T02:31:26;8.70;;;8.00;;
4794;SDS011;2411;47.060;15.064;2022-07-23T02:33:53;11.20;;;8.70;;
4794;SDS011;2411;47.060;15.064;2022-07-23T02:36:20;8.70;;;7.90;;
4794;SDS011;2411;47.060;15.064;2022-07-23T02:38:47;8.80;;;8.10;;
4794;SDS011;2411;47.060;15.064;2022-07-23T02:41:14;14.50;;;8.83;;
4794;SDS011;2411;47.060;15.064;2022-07-23T02:43:41;9.50;;;8.70;;
4794;SDS011;2411;47.060;15.064;2022-07-23T02:46:08;9.33;;;7.97;;
4794;SDS011;2411;47.060;15.064;2022-07-23T02:48:35;10.20;;;9.00;;
4794;SDS011;2411;47.060;15.064;2022-07-23T02:51:02;9.37;;;8.47;;
4794;SDS011;2411;47.060;15.064;2022-07-23T02:53:35;10.10;;;9.20;;
4794;SDS011;2411;47.060;15.064;2022-07-23T02:56:02;10.07;;;9.27;;
4794;SDS011;2411;47.060;15.064;2022-07-23T02:58:30;9.80;;;8.90;;
4794;SDS011;2411;47.060;15.064;2022-07-23T03:00:57;10.17;;;9.17;;
4794;SDS011;2411;47.060;15.064;2022-07-23T03:03:24;11.30;;;9.57;;
4794;SDS011;2411;47.060;15.064;2022-07-23T03:05:55;10.83;;;9.13;;
4794;SDS011;2411;47.060;15.064;2022-07-23T03:08:22;14.43;;;10.03;;
4794;SDS011;2411;47.060;15.064;2022-07-23T03:10:49;11.17;;;9.00;;
4794;SDS011;2411;47.060;15.064;2022-07-23T03:13:16;13.73;;;10.17;;
4794;SDS011;2411;47.060;15.064;2022-07-23T03:15:43;13.50;;;8.93;;
4794;SDS011;2411;47.060;15.064;2022-07-23T03:18:10;9.60;;;8.80;;
4794;SDS011;2411;47.060;15.064;2022-07-23T03:20:37;10.30;;;9.40;;
4794;SDS011;2411;47.060;15.064;2022-07-23T03:23:04;9.90;;;9.00;;
4794;SDS011;2411;47.060;15.064;2022-07-23T03:25:32;10.30;;;9.30;;
4794;SDS011;2411;47.060;15.064;2022-07-23T03:27:59;19.63;;;10.07;;
4794;SDS011;2411;47.060;15.064;2022-07-23T03:30:26;10.40;;;9.40;;
4794;SDS011;2411;47.060;15.064;2022-07-23T03:32:53;11.93;;;9.37;;
4794;SDS011;2411;47.060;15.064;2022-07-23T03:35:20;10.17;;;9.20;;
4794;SDS011;2411;47.060;15.064;2022-07-23T03:37:47;10.67;;;9.67;;
4794;SDS011;2411;47.060;15.064;2022-07-23T03:40:14;14.13;;;9.90;;
4794;SDS011;2411;47.060;15.064;2022-07-23T03:42:41;11.17;;;10.10;;
4794;SDS011;2411;47.060;15.064;2022-07-23T03:45:08;9.97;;;8.97;;
4794;SDS011;2411;47.060;15.064;2022-07-23T03:47:36;10.73;;;9.60;;
4794;SDS011;2411;47.060;15.064;2022-07-23T03:50:03;10.67;;;9.03;;
4794;SDS011;2411;47.060;15.064;2022-07-23T03:52:30;11.27;;;10.27;;
4794;SDS011;2411;47.060;15.064;2022-07-23T03:54:57;14.93;;;8.57;;
4794;SDS011;2411;47.060;15.064;2022-07-23T03:57:24;9.23;;;7.90;;
4794;SDS011;2411;47.060;15.064;2022-07-23T03:59:51;8.53;;;7.73;;
4794;SDS011;2411;47.060;15.064;2022-07-23T04:02:18;9.63;;;8.53;;
4794;SDS011;2411;47.060;15.064;2022-07-23T04:04:45;9.40;;;8.50;;
4794;SDS011;2411;47.060;15.064;2022-07-23T04:07:13;8.27;;;7.57;;
4794;SDS011;2411;47.060;15.064;2022-07-23T04:09:40;8.73;;;7.87;;
4794;SDS011;2411;47.060;15.064;2022-07-23T04:12:11;8.60;;;7.80;;
4794;SDS011;2411;47.060;15.064;2022-07-23T04:14:38;9.17;;;8.37;;
4794;SDS011;2411;47.060;15.064;2022-07-23T04:17:05;8.60;;;7.80;;
4794;SDS011;2411;47.060;15.064;2022-07-23T04:19:33;9.27;;;7.90;;
4794;SDS011;2411;47.060;15.064;2022-07-23T04:22:01;9.90;;;8.90;;
4794;SDS011;2411;47.060;15.064;2022-07-23T04:24:28;10.50;;;9.57;;
4794;SDS011;2411;47.060;15.064;2022-07-23T04:26:55;10.43;;;9.27;;
4794;SDS011;2411;47.060;15.064;2022-07-23T04:29:22;10.87;;;9.87;;
4794;SDS011;2411;47.060;15.064;2022-07-23T04:31:50;10.30;;;9.40;;
4794;SDS011;2411;47.060;15.064;2022-07-23T04:34:17;9.13;;;8.33;;
4794;SDS011;2411;47.060;15.064;2022-07-23T04:36:44;9.20;;;8.43;;
4794;SDS011;2411;47.060;15.064;2022-07-23T04:39:11;9.80;;;8.77;;
4794;SDS011;2411;47.060;15.064;2022-07-23T04:41:38;8.70;;;7.93;;
4794;SDS011;2411;47.060;15.064;2022-07-23T04:44:05;11.80;;;8.47;;
4794;SDS011;2411;47.060;15.064;2022-07-23T04:46:32;8.47;;;7.53;;
4794;SDS011;2411;47.060;15.064;2022-07-23T04:49:00;8.10;;;7.30;;
4794;SDS011;2411;47.060;15.064;2022-07-23T04:51:27;7.60;;;6.90;;
4794;SDS011;2411;47.060;15.064;2022-07-23T04:53:55;7.70;;;6.90;;
4794;SDS011;2411;47.060;15.064;2022-07-23T04:56:22;6.90;;;6.17;;
4794;SDS011;2411;47.060;15.064;2022-07-23T04:58:49;7.43;;;6.73;;
4794;SDS011;2411;47.060;15.064;2022-07-23T05:01:16;7.63;;;6.57;;
4794;SDS011;2411;47.060;15.064;2022-07-23T05:03:44;7.13;;;6.40;;
4794;SDS011;2411;47.060;15.064;2022-07-23T05:06:11;9.23;;;7.73;;
4794;SDS011;2411;47.060;15.064;2022-07-23T05:08:38;8.43;;;7.17;;
4794;SDS011;2411;47.060;15.064;2022-07-23T05:11:05;7.80;;;7.00;;
4794;SDS011;2411;47.060;15.064;2022-07-23T05:13:32;9.90;;;7.07;;
4794;SDS011;2411;47.060;15.064;2022-07-23T05:15:59;14.00;;;7.37;;
4794;SDS011;2411;47.060;15.064;2022-07-23T05:18:26;8.03;;;7.37;;
4794;SDS011;2411;47.060;15.064;2022-07-23T05:20:53;7.17;;;6.47;;
4794;SDS011;2411;47.060;15.064;2022-07-23T05:23:20;7.50;;;6.80;;
4794;SDS011;2411;47.060;15.064;2022-07-23T05:25:47;6.87;;;6.30;;
4794;SDS011;2411;47.060;15.064;2022-07-23T05:28:15;6.90;;;6.33;;
4794;SDS011;2411;47.060;15.064;2022-07-23T05:30:47;9.03;;;6.03;;
4794;SDS011;2411;47.060;15.064;2022-07-23T05:33:14;7.80;;;7.10;;
4794;SDS011;2411;47.060;15.064;2022-07-23T05:35:41;7.50;;;6.90;;
4794;SDS011;2411;47.060;15.064;2022-07-23T05:38:08;10.30;;;6.40;;
4794;SDS011;2411;47.060;15.064;2022-07-23T05:40:35;6.63;;;6.10;;
4794;SDS011;2411;47.060;15.064;2022-07-23T05:43:02;7.00;;;6.40;;
4794;SDS011;2411;47.060;15.064;2022-07-23T05:45:29;7.17;;;6.33;;
4794;SDS011;2411;47.060;15.064;2022-07-23T05:47:57;6.80;;;6.30;;
4794;SDS011;2411;47.060;15.064;2022-07-23T05:50:25;7.57;;;6.90;;
4794;SDS011;2411;47.060;15.064;2022-07-23T05:52:52;7.47;;;6.77;;
4794;SDS011;2411;47.060;15.064;2022-07-23T05:55:19;7.80;;;7.20;;
4794;SDS011;2411;47.060;15.064;2022-07-23T05:57:46;7.57;;;6.70;;
4794;SDS011;2411;47.060;15.064;2022-07-23T06:00:13;8.43;;;7.27;;
4794;SDS011;2411;47.060;15.064;2022-07-23T06:02:41;7.23;;;6.73;;
4794;SDS011;2411;47.060;15.064;2022-07-23T06:05:08;7.37;;;6.67;;
4794;SDS011;2411;47.060;15.064;2022-07-23T06:07:35;7.83;;;7.20;;
4794;SDS011;2411;47.060;15.064;2022-07-23T06:10:03;7.37;;;6.87;;
4794;SDS011;2411;47.060;15.064;2022-07-23T06:12:30;7.20;;;6.53;;
4794;SDS011;2411;47.060;15.064;2022-07-23T06:14:58;7.97;;;7.27;;
4794;SDS011;2411;47.060;15.064;2022-07-23T06:17:25;8.43;;;7.27;;
4794;SDS011;2411;47.060;15.064;2022-07-23T06:19:53;7.10;;;6.47;;
4794;SDS011;2411;47.060;15.064;2022-07-23T06:22:20;8.57;;;6.80;;
4794;SDS011;2411;47.060;15.064;2022-07-23T06:24:49;7.73;;;6.67;;
4794;SDS011;2411;47.060;15.064;2022-07-23T06:27:17;6.60;;;6.10;;
4794;SDS011;2411;47.060;15.064;2022-07-23T06:29:51;7.30;;;6.50;;
4794;SDS011;2411;47.060;15.064;2022-07-23T06:32:18;11.73;;;7.27;;
4794;SDS011;2411;47.060;15.064;2022-07-23T06:34:45;8.00;;;7.30;;
4794;SDS011;2411;47.060;15.064;2022-07-23T06:37:14;13.60;;;6.67;;
4794;SDS011;2411;47.060;15.064;2022-07-23T06:39:42;10.73;;;7.10;;
4794;SDS011;2411;47.060;15.064;2022-07-23T06:42:10;7.40;;;6.40;;
4794;SDS011;2411;47.060;15.064;2022-07-23T06:44:38;7.60;;;6.90;;
4794;SDS011;2411;47.060;15.064;2022-07-23T06:47:05;6.50;;;6.00;;
4794;SDS011;2411;47.060;15.064;2022-07-23T06:49:32;8.17;;;7.37;;
4794;SDS011;2411;47.060;15.064;2022-07-23T06:51:59;8.70;;;6.13;;
4794;SDS011;2411;47.060;15.064;2022-07-23T06:54:26;9.03;;;7.67;;
4794;SDS011;2411;47.060;15.064;2022-07-23T06:56:53;8.23;;;7.20;;
4794;SDS011;2411;47.060;15.064;2022-07-23T06:59:20;7.63;;;7.00;;
4794;SDS011;2411;47.060;15.064;2022-07-23T07:01:47;10.57;;;6.97;;
4794;SDS011;2411;47.060;15.064;2022-07-23T07:04:14;20.30;;;8.43;;
4794;SDS011;2411;47.060;15.064;2022-07-23T07:06:41;22.00;;;7.30;;
4794;SDS011;2411;47.060;15.064;2022-07-23T07:09:08;16.30;;;6.90;;
4794;SDS011;2411;47.060;15.064;2022-07-23T07:11:35;15.50;;;6.77;;
4794;SDS011;2411;47.060;15.064;2022-07-23T07:14:02;21.43;;;7.60;;
4794;SDS011;2411;47.060;15.064;2022-07-23T07:16:30;21.77;;;7.10;;
4794;SDS011;2411;47.060;15.064;2022-07-23T07:18:58;15.27;;;7.37;;
4794;SDS011;2411;47.060;15.064;2022-07-23T07:21:26;15.83;;;6.83;;
4794;SDS011;2411;47.060;15.064;2022-07-23T07:23:53;16.43;;;7.00;;
4794;SDS011;2411;47.060;15.064;2022-07-23T07:26:20;19.47;;;7.47;;
4794;SDS011;2411;47.060;15.064;2022-07-23T07:28:47;10.93;;;7.40;;
4794;SDS011;2411;47.060;15.064;2022-07-23T07:31:14;20.90;;;7.73;;
4794;SDS011;2411;47.060;15.064;2022-07-23T07:33:41;16.13;;;6.83;;
4794;SDS011;2411;47.060;15.064;2022-07-23T07:36:10;17.30;;;7.50;;
4794;SDS011;2411;47.060;15.064;2022-07-23T07:38:44;7.80;;;6.80;;
4794;SDS011;2411;47.060;15.064;2022-07-23T07:41:11;12.50;;;6.77;;
4794;SDS011;2411;47.060;15.064;2022-07-23T07:43:40;8.50;;;7.10;;
4794;SDS011;2411;47.060;15.064;2022-07-23T07:46:07;14.90;;;6.93;;
4794;SDS011;2411;47.060;15.064;2022-07-23T07:48:37;16.73;;;7.03;;
4794;SDS011;2411;47.060;15.064;2022-07-23T07:51:04;16.37;;;5.30;;
4794;SDS011;2411;47.060;15.064;2022-07-23T07:53:32;7.47;;;6.60;;
4794;SDS011;2411;47.060;15.064;2022-07-23T07:55:59;12.40;;;6.47;;
4794;SDS011;2411;47.060;15.064;2022-07-23T07:58:26;5.73;;;3.87;;
4794;SDS011;2411;47.060;15.064;2022-07-23T08:00:53;3.53;;;3.33;;
4794;SDS011;2411;47.060;15.064;2022-07-23T08:03:20;3.50;;;3.30;;
4794;SDS011;2411;47.060;15.064;2022-07-23T08:05:48;3.87;;;3.67;;
4794;SDS011;2411;47.060;15.064;2022-07-23T08:08:15;4.90;;;4.50;;
4794;SDS011;2411;47.060;15.064;2022-07-23T08:10:42;8.37;;;7.20;;
4794;SDS011;2411;47.060;15.064;2022-07-23T08:13:12;12.43;;;7.10;;
4794;SDS011;2411;47.060;15.064;2022-07-23T08:15:41;9.40;;;8.53;;
4794;SDS011;2411;47.060;15.064;2022-07-23T08:18:09;9.43;;;8.53;;
4794;SDS011;2411;47.060;15.064;2022-07-23T08:20:36;9.60;;;8.60;;
4794;SDS011;2411;47.060;15.064;2022-07-23T08:23:04;8.83;;;7.50;;
4794;SDS011;2411;47.060;15.064;2022-07-23T08:25:37;9.33;;;7.50;;
4794;SDS011;2411;47.060;15.064;2022-07-23T08:28:07;9.17;;;8.23;;
4794;SDS011;2411;47.060;15.064;2022-07-23T08:30:36;9.90;;;7.90;;
4794;SDS011;2411;47.060;15.064;2022-07-23T08:35:59;10.67;;;7.30;;
4794;SDS011;2411;47.060;15.064;2022-07-23T08:38:29;8.17;;;6.37;;
4794;SDS011;2411;47.060;15.064;2022-07-23T08:40:57;7.57;;;6.97;;
4794;SDS011;2411;47.060;15.064;2022-07-23T08:43:25;10.73;;;7.10;;
4794;SDS011;2411;47.060;15.064;2022-07-23T08:45:54;15.00;;;6.83;;
4794;SDS011;2411;47.060;15.064;2022-07-23T08:48:30;10.00;;;6.80;;
4794;SDS011;2411;47.060;15.064;2022-07-23T08:51:00;13.20;;;7.10;;
4794;SDS011;2411;47.060;15.064;2022-07-23T08:53:29;7.70;;;7.00;;
4794;SDS011;2411;47.060;15.064;2022-07-23T08:55:58;10.80;;;6.70;;
4794;SDS011;2411;47.060;15.064;2022-07-23T08:58:29;7.20;;;6.60;;
4794;SDS011;2411;47.060;15.064;2022-07-23T09:00:57;10.83;;;7.37;;
4794;SDS011;2411;47.060;15.064;2022-07-23T09:03:26;7.90;;;7.10;;
4794;SDS011;2411;47.060;15.064;2022-07-23T09:05:56;10.67;;;9.17;;
4794;SDS011;2411;47.060;15.064;2022-07-23T09:11:05;7.03;;;6.33;;
4794;SDS011;2411;47.060;15.064;2022-07-23T09:13:39;8.87;;;7.00;;
4794;SDS011;2411;47.060;15.064;2022-07-23T09:18:38;7.67;;;7.00;;
4794;SDS011;2411;47.060;15.064;2022-07-23T09:29:10;6.80;;;3.47;;
4794;SDS011;2411;47.060;15.064;2022-07-23T09:31:59;3.97;;;3.67;;
4794;SDS011;2411;47.060;15.064;2022-07-23T09:34:29;3.73;;;3.53;;
4794;SDS011;2411;47.060;15.064;2022-07-23T09:37:12;3.87;;;3.67;;
4794;SDS011;2411;47.060;15.064;2022-07-23T09:39:47;4.00;;;3.70;;
4794;SDS011;2411;47.060;15.064;2022-07-23T09:44:52;3.30;;;3.10;;
4794;SDS011;2411;47.060;15.064;2022-07-23T09:47:22;3.97;;;3.77;;
4794;SDS011;2411;47.060;15.064;2022-07-23T09:49:58;3.70;;;3.50;;
4794;SDS011;2411;47.060;15.064;2022-07-23T09:52:29;3.67;;;3.47;;
4794;SDS011;2411;47.060;15.064;2022-07-23T09:55:05;3.73;;;3.43;;
4794;SDS011;2411;47.060;15.064;2022-07-23T09:57:33;3.40;;;2.93;;
4794;SDS011;2411;47.060;15.064;2022-07-23T10:00:01;3.60;;;3.03;;
4794;SDS011;2411;47.060;15.064;2022-07-23T10:02:33;3.57;;;3.37;;
4794;SDS011;2411;47.060;15.064;2022-07-23T10:05:01;3.23;;;3.03;;
4794;SDS011;2411;47.060;15.064;2022-07-23T10:07:31;3.07;;;2.87;;
4794;SDS011;2411;47.060;15.064;2022-07-23T10:10:01;3.43;;;3.13;;
4794;SDS011;2411;47.060;15.064;2022-07-23T10:12:28;3.03;;;2.83;;
4794;SDS011;2411;47.060;15.064;2022-07-23T10:15:05;3.40;;;3.20;;
4794;SDS011;2411;47.060;15.064;2022-07-23T10:17:33;2.97;;;2.87;;
4794;SDS011;2411;47.060;15.064;2022-07-23T10:20:02;6.03;;;2.93;;
4794;SDS011;2411;47.060;15.064;2022-07-23T10:22:31;2.87;;;2.77;;
4794;SDS011;2411;47.060;15.064;2022-07-23T10:25:24;3.37;;;3.17;;
4794;SDS011;2411;47.060;15.064;2022-07-23T10:28:15;3.10;;;2.90;;
4794;SDS011;2411;47.060;15.064;2022-07-23T10:31:14;3.83;;;3.40;;
4794;SDS011;2411;47.060;15.064;2022-07-23T10:34:17;3.73;;;2.93;;
4794;SDS011;2411;47.060;15.064;2022-07-23T10:39:47;3.53;;;3.30;;
4794;SDS011;2411;47.060;15.064;2022-07-23T10:42:15;3.40;;;3.20;;
4794;SDS011;2411;47.060;15.064;2022-07-23T10:44:47;4.90;;;4.00;;
4794;SDS011;2411;47.060;15.064;2022-07-23T10:47:21;3.67;;;3.40;;
4794;SDS011;2411;47.060;15.064;2022-07-23T10:50:28;4.33;;;4.03;;
4794;SDS011;2411;47.060;15.064;2022-07-23T10:55:50;4.67;;;4.17;;
4794;SDS011;2411;47.060;15.064;2022-07-23T10:58:23;4.67;;;4.20;;
4794;SDS011;2411;47.060;15.064;2022-07-23T11:04:00;6.80;;;3.63;;
4794;SDS011;2411;47.060;15.064;2022-07-23T11:09:31;4.23;;;3.93;;
4794;SDS011;2411;47.060;15.064;2022-07-23T11:17:31;4.50;;;4.10;;
4794;SDS011;2411;47.060;15.064;2022-07-23T11:20:26;4.60;;;4.20;;
4794;SDS011;2411;47.060;15.064;2022-07-23T11:22:57;4.40;;;4.07;;
4794;SDS011;2411;47.060;15.064;2022-07-23T11:27:54;4.63;;;4.33;;
4794;SDS011;2411;47.060;15.064;2022-07-23T11:33:16;4.70;;;4.30;;
4794;SDS011;2411;47.060;15.064;2022-07-23T11:35:44;4.20;;;3.90;;
4794;SDS011;2411;47.060;15.064;2022-07-23T11:38:27;4.57;;;4.20;;
4794;SDS011;2411;47.060;15.064;2022-07-23T11:40:56;4.47;;;4.17;;
4794;SDS011;2411;47.060;15.064;2022-07-23T11:43:24;4.57;;;4.20;;
4794;SDS011;2411;47.060;15.064;2022-07-23T11:45:58;4.77;;;4.37;;
4794;SDS011;2411;47.060;15.064;2022-07-23T11:48:27;4.97;;;4.30;;
4794;SDS011;2411;47.060;15.064;2022-07-23T11:50:57;4.30;;;4.00;;
4794;SDS011;2411;47.060;15.064;2022-07-23T11:53:28;4.53;;;4.13;;
4794;SDS011;2411;47.060;15.064;2022-07-23T11:56:04;4.30;;;3.90;;
4794;SDS011;2411;47.060;15.064;2022-07-23T11:58:31;4.40;;;4.00;;
4794;SDS011;2411;47.060;15.064;2022-07-23T12:00:58;9.40;;;3.97;;
4794;SDS011;2411;47.060;15.064;2022-07-23T12:03:26;3.90;;;3.70;;
4794;SDS011;2411;47.060;15.064;2022-07-23T12:05:57;4.43;;;4.13;;
4794;SDS011;2411;47.060;15.064;2022-07-23T12:08:26;4.70;;;4.40;;
4794;SDS011;2411;47.060;15.064;2022-07-23T12:10:53;4.77;;;4.37;;
4794;SDS011;2411;47.060;15.064;2022-07-23T12:13:20;9.03;;;3.80;;
4794;SDS011;2411;47.060;15.064;2022-07-23T12:15:53;6.40;;;3.90;;
4794;SDS011;2411;47.060;15.064;2022-07-23T12:18:23;4.40;;;4.10;;
4794;SDS011;2411;47.060;15.064;2022-07-23T12:20:53;4.73;;;4.43;;
4794;SDS011;2411;47.060;15.064;2022-07-23T12:23:22;4.70;;;4.30;;
4794;SDS011;2411;47.060;15.064;2022-07-23T12:25:51;4.63;;;4.27;;
4794;SDS011;2411;47.060;15.064;2022-07-23T12:28:20;4.43;;;4.03;;
4794;SDS011;2411;47.060;15.064;2022-07-23T12:30:51;4.17;;;3.87;;
4794;SDS011;2411;47.060;15.064;2022-07-23T12:33:33;4.87;;;4.57;;
4794;SDS011;2411;47.060;15.064;2022-07-23T12:36:04;4.07;;;3.73;;
4794;SDS011;2411;47.060;15.064;2022-07-23T12:38:50;4.70;;;4.40;;
4794;SDS011;2411;47.060;15.064;2022-07-23T12:41:18;5.57;;;5.07;;
4794;SDS011;2411;47.060;15.064;2022-07-23T12:43:45;5.50;;;5.10;;
4794;SDS011;2411;47.060;15.064;2022-07-23T12:46:14;5.60;;;5.20;;
4794;SDS011;2411;47.060;15.064;2022-07-23T12:53:55;6.27;;;5.67;;
4794;SDS011;2411;47.060;15.064;2022-07-23T12:56:35;6.07;;;5.60;;
4794;SDS011;2411;47.060;15.064;2022-07-23T13:01:35;5.37;;;4.93;;
4794;SDS011;2411;47.060;15.064;2022-07-23T13:04:23;5.10;;;4.70;;
4794;SDS011;2411;47.060;15.064;2022-07-23T13:06:55;5.23;;;4.73;;
4794;SDS011;2411;47.060;15.064;2022-07-23T13:09:26;5.50;;;5.20;;
4794;SDS011;2411;47.060;15.064;2022-07-23T13:11:58;4.37;;;4.10;;
4794;SDS011;2411;47.060;15.064;2022-07-23T13:14:26;4.27;;;3.97;;
4794;SDS011;2411;47.060;15.064;2022-07-23T13:16:54;4.90;;;4.50;;
4794;SDS011;2411;47.060;15.064;2022-07-23T13:19:25;5.93;;;4.53;;
4794;SDS011;2411;47.060;15.064;2022-07-23T13:22:12;5.33;;;4.93;;
4794;SDS011;2411;47.060;15.064;2022-07-23T13:24:39;5.60;;;5.10;;
4794;SDS011;2411;47.060;15.064;2022-07-23T13:27:07;6.40;;;5.27;;
4794;SDS011;2411;47.060;15.064;2022-07-23T13:29:38;4.60;;;4.30;;
4794;SDS011;2411;47.060;15.064;2022-07-23T13:32:05;5.17;;;4.87;;
4794;SDS011;2411;47.060;15.064;2022-07-23T13:34:38;4.93;;;4.63;;
4794;SDS011;2411;47.060;15.064;2022-07-23T13:37:07;5.10;;;4.70;;
4794;SDS011;2411;47.060;15.064;2022-07-23T13:39:34;4.83;;;4.40;;
4794;SDS011;2411;47.060;15.064;2022-07-23T13:42:04;5.47;;;5.07;;
4794;SDS011;2411;47.060;15.064;2022-07-23T13:44:33;4.70;;;4.30;;
4794;SDS011;2411;47.060;15.064;2022-07-23T13:47:01;5.07;;;4.67;;
4794;SDS011;2411;47.060;15.064;2022-07-23T13:49:29;5.30;;;4.93;;
4794;SDS011;2411;47.060;15.064;2022-07-23T13:51:56;6.70;;;4.87;;
4794;SDS011;2411;47.060;15.064;2022-07-23T13:54:24;6.30;;;4.37;;
4794;SDS011;2411;47.060;15.064;2022-07-23T13:56:53;5.37;;;4.97;;
4794;SDS011;2411;47.060;15.064;2022-07-23T13:59:22;5.70;;;5.20;;
4794;SDS011;2411;47.060;15.064;2022-07-23T14:01:52;4.83;;;4.53;;
4794;SDS011;2411;47.060;15.064;2022-07-23T14:04:40;5.40;;;5.00;;
4794;SDS011;2411;47.060;15.064;2022-07-23T14:07:07;5.47;;;5.07;;
4794;SDS011;2411;47.060;15.064;2022-07-23T14:09:35;5.27;;;4.87;;
4794;SDS011;2411;47.060;15.064;2022-07-23T14:12:03;5.40;;;5.00;;
4794;SDS011;2411;47.060;15.064;2022-07-23T14:14:30;5.40;;;5.00;;
4794;SDS011;2411;47.060;15.064;2022-07-23T14:16:57;5.60;;;5.20;;
4794;SDS011;2411;47.060;15.064;2022-07-23T14:19:27;6.40;;;5.07;;
4794;SDS011;2411;47.060;15.064;2022-07-23T14:21:56;6.90;;;5.47;;
4794;SDS011;2411;47.060;15.064;2022-07-23T14:24:23;7.73;;;4.80;;
4794;SDS011;2411;47.060;15.064;2022-07-23T14:26:56;5.57;;;5.17;;
4794;SDS011;2411;47.060;15.064;2022-07-23T14:29:23;4.87;;;4.53;;
4794;SDS011;2411;47.060;15.064;2022-07-23T14:31:52;5.73;;;5.00;;
4794;SDS011;2411;47.060;15.064;2022-07-23T14:34:19;6.07;;;5.47;;
4794;SDS011;2411;47.060;15.064;2022-07-23T14:36:53;5.70;;;5.20;;
4794;SDS011;2411;47.060;15.064;2022-07-23T14:39:20;5.27;;;4.77;;
4794;SDS011;2411;47.060;15.064;2022-07-23T14:41:47;5.63;;;5.13;;
4794;SDS011;2411;47.060;15.064;2022-07-23T14:44:14;6.80;;;5.33;;
4794;SDS011;2411;47.060;15.064;2022-07-23T14:46:42;7.57;;;5.33;;
4794;SDS011;2411;47.060;15.064;2022-07-23T14:49:09;5.53;;;5.13;;
4794;SDS011;2411;47.060;15.064;2022-07-23T14:51:36;6.77;;;5.80;;
4794;SDS011;2411;47.060;15.064;2022-07-23T14:54:04;5.60;;;5.10;;
4794;SDS011;2411;47.060;15.064;2022-07-23T14:56:32;5.70;;;4.60;;
4794;SDS011;2411;47.060;15.064;2022-07-23T14:59:00;4.83;;;4.43;;
4794;SDS011;2411;47.060;15.064;2022-07-23T15:01:30;5.47;;;5.07;;
4794;SDS011;2411;47.060;15.064;2022-07-23T15:04:00;5.30;;;5.00;;
4794;SDS011;2411;47.060;15.064;2022-07-23T15:06:47;6.87;;;4.57;;
4794;SDS011;2411;47.060;15.064;2022-07-23T15:09:14;4.60;;;4.20;;
4794;SDS011;2411;47.060;15.064;2022-07-23T15:11:42;5.20;;;4.80;;
4794;SDS011;2411;47.060;15.064;2022-07-23T15:14:09;5.13;;;4.73;;
4794;SDS011;2411;47.060;15.064;2022-07-23T15:16:43;5.57;;;5.17;;
4794;SDS011;2411;47.060;15.064;2022-07-23T15:19:10;5.30;;;4.90;;
4794;SDS011;2411;47.060;15.064;2022-07-23T15:21:38;5.40;;;5.00;;
4794;SDS011;2411;47.060;15.064;2022-07-23T15:24:05;4.70;;;4.40;;
4794;SDS011;2411;47.060;15.064;2022-07-23T15:26:32;4.60;;;4.30;;
4794;SDS011;2411;47.060;15.064;2022-07-23T15:29:01;5.30;;;4.80;;
4794;SDS011;2411;47.060;15.064;2022-07-23T15:31:29;5.40;;;4.90;;
4794;SDS011;2411;47.060;15.064;2022-07-23T15:33:57;5.23;;;4.77;;
4794;SDS011;2411;47.060;15.064;2022-07-23T15:36:25;5.63;;;5.23;;
4794;SDS011;2411;47.060;15.064;2022-07-23T15:38:53;5.30;;;4.90;;
4794;SDS011;2411;47.060;15.064;2022-07-23T15:41:19;5.10;;;4.70;;
4794;SDS011;2411;47.060;15.064;2022-07-23T15:43:47;5.30;;;4.90;;
4794;SDS011;2411;47.060;15.064;2022-07-23T15:46:14;5.00;;;4.70;;
4794;SDS011;2411;47.060;15.064;2022-07-23T15:48:50;5.63;;;5.23;;
4794;SDS011;2411;47.060;15.064;2022-07-23T15:51:18;4.70;;;4.30;;
4794;SDS011;2411;47.060;15.064;2022-07-23T15:53:45;7.53;;;4.87;;
4794;SDS011;2411;47.060;15.064;2022-07-23T15:56:14;6.03;;;5.53;;
4794;SDS011;2411;47.060;15.064;2022-07-23T15:58:42;5.17;;;4.80;;